Latest Weather Observations for Lockhart River

IDQ60801

Issued at 4:32 pm EST Thursday 23 February 2017 (issued every 30 minutes, with the page automatically refreshed every 10 minutes)

About weather observations | Map of weather stations | Latest weather observations for QLD | Other Formats
Station Details ID: 028008 Name: LOCKHART RIVER AIRPORT Lat: -12.79 Lon: 143.30 Height: 18.5 m
Data from the previous 72 hours. | See also: Recent months at Lockhart River
Date/Time
EST
Temp
°C
App
Temp
°C
Dew
Point
°C
Rel
Hum
%
Delta-T
°C
Wind Press
QNH
hPa
Press
MSL
hPa
Rain since
9am
mm
Dir  Spd
km/h
Gust
km/h
Spd
kts
Gust
kts
23/04:00pm 30.5 33.7 24.9 72 3.9 E 17 26 9 14 1008.7 1008.6 0.0
23/03:30pm 30.4 33.2 24.3 70 4.3 E 17 26 9 14 1009.0 1008.9 0.0
23/03:00pm 31.5 34.2 24.1 65 5.2 E 17 24 9 13 1009.1 1009.0 0.0
23/02:30pm 31.4 35.0 24.3 66 5.0 E 13 19 7 10 1009.5 1009.4 0.0
23/02:00pm 30.9 34.2 23.8 66 4.9 E 13 19 7 10 1009.9 1009.8 0.0
23/01:30pm 30.8 33.9 23.5 65 5.0 E 13 22 7 12 1010.3 1010.2 0.0
23/01:00pm 30.9 34.2 24.5 68 4.5 ESE 15 24 8 13 1010.8 1010.7 0.0
23/12:30pm 30.8 34.6 24.7 70 4.3 ESE 13 22 7 12 1011.5 1011.4 0.0
23/12:00pm 30.6 34.3 24.5 70 4.3 E 13 17 7 9 1012.2 1012.1 0.0
23/11:30am 30.9 35.1 25.3 72 4.0 E 13 17 7 9 1012.3 1012.2 0.0
23/11:00am 30.3 35.3 25.4 75 3.5 ENE 9 17 5 9 1012.5 1012.4 0.0
23/10:30am 30.1 34.4 24.9 73 3.7 E 11 15 6 8 1012.8 1012.7 0.0
23/10:13am 29.7 34.6 24.3 73 3.8 E 6 11 3 6 1012.7 1012.6 0.0
23/10:00am 28.9 34.3 25.1 80 2.7 ESE 6 13 3 7 1013.0 1012.9 0.0
23/09:46am 28.8 35.8 25.8 84 2.1 CALM 0 9 0 5 1013.0 1012.9 0.0
23/09:30am 28.5 34.5 25.5 84 2.1 E 4 11 2 6 1013.2 1013.1 0.0
23/09:00am 27.9 34.7 25.5 87 1.7 CALM 0 7 0 4 1013.2 1013.1 1.2
23/08:30am 26.4 32.7 24.8 91 1.1 CALM 0 0 0 0 1013.0 1012.9 1.2
23/08:00am 24.9 31.3 24.9 100 0.0 CALM 0 0 0 0 1012.8 1012.7 1.2
23/07:30am 23.8 29.2 23.8 100 0.0 WNW 2 7 1 4 1012.3 1012.2 1.2
23/07:00am 22.7 27.0 22.7 100 0.0 WNW 4 9 2 5 1011.9 1011.8 1.2
23/06:30am 22.6 27.7 22.6 100 0.0 CALM 0 0 0 0 1011.6 1011.5 1.2
23/06:00am 22.5 27.5 22.5 100 0.0 CALM 0 0 0 0 1011.6 1011.5 1.2
23/05:30am 22.7 27.8 22.7 100 0.0 CALM 0 0 0 0 1011.4 1011.3 1.2
23/05:00am 22.8 28.0 22.8 100 0.0 CALM 0 0 0 0 1011.2 1011.1 1.2
23/04:30am 23.0 28.3 23.0 100 0.0 CALM 0 0 0 0 1010.9 1010.8 1.2
23/04:00am 22.9 28.1 22.9 100 0.0 CALM 0 0 0 0 1010.9 1010.8 1.2
23/03:30am 23.0 27.9 23.0 100 0.0 NW 2 7 1 4 1010.8 1010.7 1.0
23/03:00am 23.1 28.0 23.1 100 0.0 WNW 2 7 1 4 1011.1 1011.0 1.0
23/02:30am 23.3 28.7 23.3 100 0.0 CALM 0 0 0 0 1011.4 1011.3 1.0
23/02:00am 23.6 29.2 23.6 100 0.0 CALM 0 0 0 0 1011.8 1011.7 1.0
23/01:32am 23.7 29.4 23.7 100 0.0 CALM 0 0 0 0 1012.4 1012.3 1.0
23/01:30am 23.8 29.5 23.8 100 0.0 CALM 0 0 0 0 1012.5 1012.4 1.0
23/01:00am 23.9 29.7 23.9 100 0.0 CALM 0 0 0 0 1012.8 1012.7 1.0
23/12:53am 24.0 29.8 24.0 100 0.0 CALM 0 0 0 0 1013.0 1012.9 1.0
23/12:30am 24.1 30.0 24.1 100 0.0 CALM 0 0 0 0 1013.1 1013.0 1.0
23/12:00am 24.1 30.0 24.1 100 0.0 CALM 0 0 0 0 1013.2 1013.1 1.0
 
Date/Time
EST
Temp
°C
App
Temp
°C
Dew
Point
°C
Rel
Hum
%
Delta-T
°C
Wind Press
QNH
hPa
Press
MSL
hPa
Rain since
9am
mm
Dir  Spd
km/h
Gust
km/h
Spd
kts
Gust
kts
22/11:30pm 24.1 30.0 24.1 100 0.0 CALM 0 0 0 0 1013.1 1013.0 1.0
22/11:00pm 24.2 30.2 24.2 100 0.0 CALM 0 0 0 0 1013.1 1013.0 1.0
22/10:30pm 24.4 30.5 24.4 100 0.0 CALM 0 0 0 0 1012.4 1012.3 1.0
22/10:00pm 24.6 30.7 24.4 99 0.1 CALM 0 0 0 0 1012.2 1012.1 1.0
22/09:30pm 24.5 30.6 24.5 100 0.0 CALM 0 0 0 0 1012.1 1012.0 1.0
22/09:00pm 24.6 30.7 24.4 99 0.1 CALM 0 0 0 0 1012.0 1011.9 1.0
22/08:30pm 24.7 28.7 24.4 98 0.2 SW 11 13 6 7 1011.7 1011.6 1.0
22/08:00pm 24.8 30.8 24.3 97 0.3 CALM 0 0 0 0 1011.6 1011.5 1.0
22/07:30pm 24.9 31.0 24.4 97 0.3 CALM 0 0 0 0 1011.5 1011.4 1.0
22/07:00pm 24.9 30.3 23.9 94 0.7 WSW 2 9 1 5 1011.0 1010.9 1.0
22/06:30pm 25.5 30.3 24.1 92 1.0 S 6 11 3 6 1010.8 1010.7 0.4
22/06:00pm 25.5 31.0 23.4 88 1.4 CALM 0 7 0 4 1010.2 1010.1 0.0
22/05:30pm 25.5 28.4 23.2 87 1.6 NW 13 19 7 10 1009.9 1009.8 0.0
22/05:00pm 26.0 27.9 23.5 86 1.7 NW 19 28 10 15 1009.6 1009.5 0.0
22/04:30pm 28.6 31.0 24.2 77 3.1 NNE 19 33 10 18 1009.3 1009.2 0.0
22/04:00pm 30.4 34.1 25.2 74 3.7 NNE 15 24 8 13 1009.0 1008.9 0.0
22/03:30pm 30.4 33.6 25.0 73 3.8 NE 17 28 9 15 1008.9 1008.8 0.0
22/03:00pm 30.8 35.2 26.3 77 3.2 ENE 15 26 8 14 1008.9 1008.8 0.0
22/02:30pm 30.8 34.4 25.6 74 3.7 ENE 17 26 9 14 1008.9 1008.8 0.0
22/02:00pm 30.9 33.9 25.3 72 4.0 NE 19 24 10 13 1009.6 1009.5 0.0
22/01:30pm 30.7 33.9 25.5 74 3.7 E 19 32 10 17 1009.8 1009.7 0.0
22/01:00pm 30.3 33.6 25.1 73 3.7 ENE 17 24 9 13 1010.6 1010.5 0.0
22/12:30pm 30.7 33.7 24.6 70 4.3 E 17 28 9 15 1011.0 1010.9 0.0
22/12:00pm 30.2 36.4 26.4 80 2.7 NE 6 17 3 9 1011.3 1011.2 0.0
22/11:30am 28.8 32.4 25.6 83 2.3 N 17 28 9 15 1011.8 1011.7 0.0
22/11:00am 30.8 35.8 26.5 78 3.1 NE 13 22 7 12 1012.1 1012.0 0.0
22/10:30am 29.5 35.4 25.9 81 2.6 E 6 15 3 8 1012.5 1012.4 0.0
22/10:00am 28.1 33.7 25.7 87 1.7 WSW 7 9 4 5 1012.7 1012.6 0.0
22/09:30am 27.6 34.2 25.2 87 1.7 CALM 0 0 0 0 1013.0 1012.9 0.0
22/09:00am 26.6 32.7 25.0 91 1.1 WNW 2 9 1 5 1012.9 1012.8 4.8
22/08:30am 26.0 32.4 25.5 97 0.4 WNW 2 9 1 5 1012.5 1012.4 4.8
22/08:00am 25.1 30.5 25.1 100 0.0 SE 6 9 3 5 1012.3 1012.2 4.8
22/07:38am 25.0 30.3 25.0 100 0.0 SE 6 9 3 5 1012.0 1011.9 4.8
22/07:30am 24.9 30.9 24.9 100 0.0 SE 2 9 1 5 1012.0 1011.9 4.8
22/07:00am 24.3 30.3 24.3 100 0.0 CALM 0 0 0 0 1011.8 1011.7 4.8
22/06:40am 24.4 30.5 24.4 100 0.0 CALM 0 0 0 0 1011.5 1011.4 4.8
22/06:30am 24.3 30.3 24.3 100 0.0 CALM 0 0 0 0 1011.3 1011.2 4.8
22/06:00am 24.4 30.5 24.4 100 0.0 CALM 0 0 0 0 1011.2 1011.1 4.8
22/05:30am 24.5 30.6 24.5 100 0.0 CALM 0 0 0 0 1011.1 1011.0 4.8
22/05:00am 24.2 29.8 24.2 100 0.0 N 2 7 1 4 1010.7 1010.6 4.8
22/04:41am 24.2 28.5 24.2 100 0.0 NW 9 13 5 7 1010.6 1010.5 4.8
22/04:30am 24.5 29.5 24.5 100 0.0 NW 6 11 3 6 1010.5 1010.4 4.8
22/04:00am 24.2 30.2 24.2 100 0.0 CALM 0 0 0 0 1010.1 1010.0 4.8
22/03:30am 24.4 30.5 24.4 100 0.0 CALM 0 0 0 0 1010.2 1010.1 4.8
22/03:00am 24.3 30.3 24.3 100 0.0 CALM 0 0 0 0 1010.3 1010.2 4.8
22/02:30am 24.3 30.3 24.3 100 0.0 CALM 0 0 0 0 1010.4 1010.3 4.6
22/02:09am 24.5 30.6 24.5 100 0.0 CALM 0 0 0 0 1010.5 1010.4 4.6
22/02:00am 24.5 30.6 24.5 100 0.0 CALM 0 0 0 0 1010.5 1010.4 4.6
22/01:30am 24.9 31.3 24.9 100 0.0 CALM 0 0 0 0 1010.9 1010.8 4.6
22/01:00am 24.8 31.1 24.8 100 0.0 CALM 0 0 0 0 1011.5 1011.4 4.6
22/12:30am 25.0 30.7 25.0 100 0.0 WNW 4 9 2 5 1012.0 1011.9 4.6
22/12:00am 25.0 31.5 25.0 100 0.0 CALM 0 7 0 4 1012.3 1012.2 4.6
 
Date/Time
EST
Temp
°C
App
Temp
°C
Dew
Point
°C
Rel
Hum
%
Delta-T
°C
Wind Press
QNH
hPa
Press
MSL
hPa
Rain since
9am
mm
Dir  Spd
km/h
Gust
km/h
Spd
kts
Gust
kts
21/11:30pm 25.1 31.6 25.1 100 0.0 CALM 0 0 0 0 1012.6 1012.5 4.6
21/11:23pm 25.1 31.6 25.1 100 0.0 CALM 0 0 0 0 1012.6 1012.5 4.6
21/11:00pm 25.1 31.6 25.1 100 0.0 CALM 0 0 0 0 1012.7 1012.6 4.6
21/10:38pm 25.3 31.9 25.3 100 0.0 CALM 0 6 0 3 1012.7 1012.6 4.6
21/10:30pm 25.3 31.9 25.3 100 0.0 CALM 0 7 0 4 1012.8 1012.7 4.6
21/10:00pm 25.0 31.5 25.0 100 0.0 CALM 0 0 0 0 1012.6 1012.5 4.6
21/09:30pm 25.3 31.9 25.3 100 0.0 CALM 0 0 0 0 1012.1 1012.0 4.6
21/09:00pm 25.4 32.0 25.2 99 0.1 CALM 0 0 0 0 1011.8 1011.7 4.6
21/08:30pm 25.5 31.7 25.2 98 0.2 NW 2 7 1 4 1011.4 1011.3 4.6
21/08:00pm 25.8 32.4 25.3 97 0.3 CALM 0 0 0 0 1011.1 1011.0 4.6
21/07:30pm 26.1 32.9 25.6 97 0.4 CALM 0 0 0 0 1010.9 1010.8 4.6
21/07:00pm 26.7 34.3 26.7 100 0.0 CALM 0 0 0 0 1010.4 1010.3 4.6
21/06:30pm 26.8 34.3 26.6 99 0.1 CALM 0 0 0 0 1009.9 1009.8 4.6
21/06:00pm 26.8 34.2 26.5 98 0.2 CALM 0 0 0 0 1009.5 1009.4 4.6
21/05:30pm 27.0 34.4 26.5 97 0.4 CALM 0 0 0 0 1009.7 1009.6 4.6
21/05:00pm 27.2 34.0 26.1 94 0.8 ESE 2 9 1 5 1009.8 1009.7 4.4
21/04:30pm 27.7 34.6 25.7 89 1.4 CALM 0 0 0 0 1009.7 1009.6 3.2
21/04:00pm 27.2 33.7 25.0 88 1.5 CALM 0 6 0 3 1009.2 1009.1 3.2
21/03:30pm 26.4 32.5 25.0 92 1.0 N 2 6 1 3 1009.4 1009.3 3.2
21/03:00pm 26.4 31.4 24.8 91 1.1 NNW 7 9 4 5 1009.4 1009.3 2.8
21/02:30pm 26.4 29.5 24.1 87 1.6 NNW 15 26 8 14 1009.8 1009.7 2.6
21/02:00pm 30.2 35.9 25.0 73 3.7 NNE 4 13 2 7 1010.2 1010.1 2.2
21/01:30pm 29.6 34.4 25.1 77 3.2 N 9 13 5 7 1010.6 1010.5 2.2
21/01:00pm 28.6 32.1 24.2 77 3.1 NNW 13 17 7 9 1011.4 1011.3 2.2
21/12:30pm 27.9 31.6 24.5 82 2.4 NNW 13 19 7 10 1011.4 1011.3 2.2
21/12:00pm 26.3 30.9 24.7 91 1.1 NNW 9 15 5 8 1012.0 1011.9 2.2
21/11:30am 27.2 28.9 24.1 83 2.1 N 22 43 12 23 1012.2 1012.1 0.0
21/11:00am 29.9 33.2 24.5 73 3.8 N 15 28 8 15 1012.1 1012.0 0.0
21/10:30am 29.1 34.0 25.9 83 2.3 N 11 15 6 8 1012.4 1012.3 0.0
21/10:00am 28.6 33.6 25.4 83 2.3 N 9 13 5 7 1012.8 1012.7 0.0
21/09:30am 28.8 34.1 25.8 84 2.1 N 9 15 5 8 1012.7 1012.6 0.0
21/09:00am 26.8 34.0 26.1 96 0.5 CALM 0 6 0 3 1012.4 1012.3 -
21/08:30am 25.7 31.8 25.7 100 0.0 NNW 4 7 2 4 1011.9 1011.8 -
21/08:00am 24.9 31.3 24.9 100 0.0 CALM 0 0 0 0 1011.8 1011.7 -
21/07:30am 24.4 30.5 24.4 100 0.0 CALM 0 0 0 0 1011.3 1011.2 -
21/07:00am 24.1 30.0 24.1 100 0.0 CALM 0 0 0 0 1010.8 1010.7 -
21/06:30am 23.9 29.7 23.9 100 0.0 CALM 0 0 0 0 1010.5 1010.4 -
21/06:00am 24.0 29.8 24.0 100 0.0 CALM 0 0 0 0 1010.2 1010.1 -
21/05:30am 24.1 30.0 24.1 100 0.0 CALM 0 0 0 0 1010.1 1010.0 -
21/05:00am 24.2 30.2 24.2 100 0.0 CALM 0 0 0 0 1009.7 1009.6 -
21/04:30am 24.1 30.0 24.1 100 0.0 CALM 0 0 0 0 1009.6 1009.5 -
21/04:00am 24.1 30.0 24.1 100 0.0 CALM 0 0 0 0 1009.2 1009.1 -
21/03:30am 24.2 30.2 24.2 100 0.0 CALM 0 0 0 0 1008.9 1008.8 -
21/03:00am 24.2 29.4 24.2 100 0.0 NW 4 7 2 4 1009.3 1009.2 0.0
21/02:30am 24.3 30.3 24.3 100 0.0 CALM 0 6 0 3 1009.4 1009.3 -
21/02:00am 24.6 30.8 24.6 100 0.0 CALM 0 0 0 0 1009.7 1009.6 -
21/01:30am 24.8 31.1 24.8 100 0.0 CALM 0 0 0 0 1009.9 1009.8 -
21/01:00am 24.7 31.0 24.7 100 0.0 CALM 0 0 0 0 1009.9 1009.8 -
21/12:30am 24.7 31.0 24.7 100 0.0 CALM 0 0 0 0 1010.2 1010.1 -
21/12:00am 24.8 31.1 24.8 100 0.0 CALM 0 0 0 0 1010.5 1010.4 -
 
Date/Time
EST
Temp
°C
App
Temp
°C
Dew
Point
°C
Rel
Hum
%
Delta-T
°C
Wind Press
QNH
hPa
Press
MSL
hPa
Rain since
9am
mm
Dir  Spd
km/h
Gust
km/h
Spd
kts
Gust
kts
20/11:30pm 25.0 31.5 25.0 100 0.0 CALM 0 0 0 0 1010.8 1010.7 -
20/11:00pm 25.0 31.5 25.0 100 0.0 CALM 0 0 0 0 1010.8 1010.7 -
20/10:30pm 25.3 31.6 25.3 100 0.0 NW 2 6 1 3 1010.7 1010.6 -
20/10:00pm 25.1 31.5 24.9 99 0.1 CALM 0 0 0 0 1010.4 1010.3 -
20/09:30pm 25.5 32.1 25.3 99 0.1 CALM 0 0 0 0 1010.3 1010.2 -
20/09:00pm 25.6 32.1 25.1 97 0.3 CALM 0 0 0 0 1010.1 1010.0 0.0
20/08:30pm 26.0 32.5 25.1 95 0.6 CALM 0 0 0 0 1009.8 1009.7 -
20/08:00pm 26.2 32.8 25.2 94 0.7 CALM 0 0 0 0 1009.4 1009.3 -
20/07:30pm 26.9 33.7 25.5 92 1.0 CALM 0 0 0 0 1009.3 1009.2 -
20/07:00pm 27.4 33.4 24.8 86 1.8 NW 2 7 1 4 1009.0 1008.9 -
20/06:30pm 28.2 33.3 25.0 83 2.2 SW 7 9 4 5 1008.5 1008.4 -
20/06:00pm 28.6 33.3 25.0 81 2.5 NW 9 13 5 7 1008.1 1008.0 -
20/05:30pm 28.9 33.2 24.2 76 3.3 N 9 13 5 7 1007.3 1007.2 -
20/05:00pm 29.2 32.8 24.3 75 3.4 N 13 17 7 9 1007.2 1007.1 -

Other Formats:

Comma delimited format used in spreadsheet applications
http://www.bom.gov.au/fwo/IDQ60801/IDQ60801.94186.axf

JavaScript Object Notation format (JSON) in row-major order
http://www.bom.gov.au/fwo/IDQ60801/IDQ60801.94186.json